Time;durP1;ratioP1;P1;durP2;ratioP2;P2;SDS_P1;SDS_P2;PMS_P1;PMS_P2;Temp;Humidity;BMP_temperature;BMP_pressure;BME280_temperature;BME280_humidity;BME280_pressure;Samples;Min_cycle;Max_cycle;Signal;HPM_P1;HPM_P2
2022/01/01 00:02:15;;;;;;;2.00;1.53;;;;;;;12.06;100.00;101244.78;5092353;28;20177;-75
2022/01/01 00:04:42;;;;;;;2.40;2.27;;;;;;;12.06;100.00;101246.72;5092238;28;20551;-75
2022/01/01 00:07:10;;;;;;;6.80;4.57;;;;;;;12.05;100.00;101245.09;5092193;28;20196;-75
2022/01/01 00:09:36;;;;;;;7.53;4.63;;;;;;;12.03;100.00;101244.59;5092261;28;20214;-74
2022/01/01 00:12:01;;;;;;;2.77;2.57;;;;;;;12.05;100.00;101242.34;5092073;28;20214;-75
2022/01/01 00:14:27;;;;;;;2.53;1.90;;;;;;;12.02;100.00;101248.44;5091973;28;20205;-75
2022/01/01 00:16:52;;;;;;;6.50;2.57;;;;;;;12.00;100.00;101245.16;5091892;28;20170;-75
2022/01/01 00:19:18;;;;;;;2.73;2.50;;;;;;;11.99;100.00;101244.34;5091992;28;20174;-74
2022/01/01 00:21:43;;;;;;;2.27;1.57;;;;;;;12.01;100.00;101246.81;5091989;28;20209;-75
2022/01/01 00:24:09;;;;;;;4.10;2.90;;;;;;;12.03;100.00;101250.06;5091844;28;20218;-74
2022/01/01 00:26:35;;;;;;;5.27;4.77;;;;;;;12.02;100.00;101251.19;5092002;28;20178;-75
2022/01/01 00:29:00;;;;;;;6.23;5.70;;;;;;;12.01;100.00;101244.09;5093208;28;20210;-75
2022/01/01 00:31:26;;;;;;;3.47;3.17;;;;;;;12.02;100.00;101243.78;5092158;28;20173;-75
2022/01/01 00:33:51;;;;;;;2.03;1.83;;;;;;;12.01;100.00;101244.88;5092210;28;20669;-75
2022/01/01 00:36:17;;;;;;;5.77;5.27;;;;;;;12.02;100.00;101252.00;5091633;28;20178;-75
2022/01/01 00:38:42;;;;;;;8.07;7.13;;;;;;;12.04;100.00;101259.91;5091886;28;20294;-76
2022/01/01 00:41:08;;;;;;;13.93;2.80;;;;;;;12.06;100.00;101258.47;5091045;28;20662;-74
2022/01/01 00:43:34;;;;;;;3.33;3.03;;;;;;;12.07;100.00;101262.84;5091822;28;20194;-75
2022/01/01 00:45:59;;;;;;;5.90;5.13;;;;;;;12.04;100.00;101265.38;5091630;28;20174;-75
2022/01/01 00:48:25;;;;;;;3.03;2.40;;;;;;;12.02;100.00;101270.34;5090434;28;20637;-75
2022/01/01 00:50:50;;;;;;;3.83;1.73;;;;;;;12.01;100.00;101255.84;5091275;28;20165;-75
2022/01/01 00:53:16;;;;;;;6.53;5.20;;;;;;;12.01;100.00;101257.78;5091641;28;20695;-75
2022/01/01 00:55:41;;;;;;;8.00;3.60;;;;;;;11.99;100.00;101249.03;5091103;28;20185;-75
2022/01/01 00:58:06;;;;;;;5.77;4.23;;;;;;;11.98;100.00;101256.41;5091735;28;20253;-74
2022/01/01 01:00:32;;;;;;;3.83;3.57;;;;;;;12.00;100.00;101265.16;5091341;28;20338;-75
2022/01/01 01:02:57;;;;;;;3.10;2.80;;;;;;;12.02;100.00;101256.66;5091433;28;20637;-75
2022/01/01 01:05:22;;;;;;;4.93;4.43;;;;;;;12.02;100.00;101260.22;5089679;28;20759;-76
2022/01/01 01:07:48;;;;;;;3.33;3.03;;;;;;;12.00;100.00;101264.34;5091157;28;20322;-76
2022/01/01 01:10:14;;;;;;;9.37;2.00;;;;;;;12.00;100.00;101258.84;5091106;28;20637;-76
2022/01/01 01:12:45;;;;;;;3.90;3.50;;;;;;;11.98;100.00;101263.81;5091014;28;20169;-76
2022/01/01 01:15:17;;;;;;;4.33;4.03;;;;;;;11.97;100.00;101270.41;5089565;28;20257;-76
2022/01/01 01:17:45;;;;;;;3.73;3.30;;;;;;;11.99;100.00;101254.50;5091143;28;20169;-76
2022/01/01 01:20:11;;;;;;;4.00;3.67;;;;;;;11.97;100.00;101281.38;5090836;28;20198;-76
2022/01/01 01:22:36;;;;;;;4.70;3.80;;;;;;;11.94;100.00;101271.03;5090758;28;20532;-75
2022/01/01 01:25:02;;;;;;;4.70;4.30;;;;;;;11.90;100.00;101277.13;5090552;28;20203;-76
2022/01/01 01:27:28;;;;;;;11.30;6.53;;;;;;;11.87;100.00;101271.44;5091118;28;20658;-76
2022/01/01 01:29:54;;;;;;;7.33;6.63;;;;;;;11.83;100.00;101254.75;5091047;28;20170;-75
2022/01/01 01:32:20;;;;;;;9.70;8.70;;;;;;;11.83;100.00;101273.94;5090730;28;20249;-76
2022/01/01 01:34:45;;;;;;;8.97;6.77;;;;;;;11.82;100.00;101283.25;5090585;28;20343;-74
2022/01/01 01:37:10;;;;;;;9.93;7.53;;;;;;;11.80;100.00;101288.22;5091009;28;20170;-76
2022/01/01 01:39:36;;;;;;;7.43;4.23;;;;;;;11.78;100.00;101273.19;5090640;28;20176;-76
2022/01/01 01:42:01;;;;;;;7.27;6.53;;;;;;;11.78;100.00;101275.91;5090175;28;20370;-75
2022/01/01 01:44:31;;;;;;;6.90;6.23;;;;;;;11.77;100.00;101275.09;5090453;28;20620;-75
2022/01/01 01:46:59;;;;;;;8.93;7.83;;;;;;;11.73;100.00;101271.34;5090394;28;20170;-77
2022/01/01 01:49:24;;;;;;;8.63;6.37;;;;;;;11.75;100.00;101282.81;5090518;28;20210;-75
2022/01/01 01:51:50;;;;;;;10.17;9.03;;;;;;;11.75;100.00;101277.34;5090735;28;20260;-76
2022/01/01 01:54:17;;;;;;;15.13;9.33;;;;;;;11.77;100.00;101279.78;5090687;28;20211;-75
2022/01/01 01:56:45;;;;;;;12.47;8.70;;;;;;;11.76;100.00;101278.97;5090230;28;20181;-75
2022/01/01 01:59:10;;;;;;;11.70;8.97;;;;;;;11.74;100.00;101283.91;5090564;28;20174;-76
2022/01/01 02:01:36;;;;;;;10.07;9.17;;;;;;;11.70;100.00;101271.91;5090907;28;20249;-75
2022/01/01 02:04:01;;;;;;;4.83;4.47;;;;;;;11.71;100.00;101278.22;5095091;28;20178;-76
2022/01/01 02:06:27;;;;;;;5.60;4.50;;;;;;;11.70;100.00;101279.31;5094332;28;20174;-75
2022/01/01 02:08:53;;;;;;;5.87;5.33;;;;;;;11.69;100.00;101275.78;5094535;28;20176;-75
2022/01/01 02:11:20;;;;;;;7.60;6.80;;;;;;;11.69;100.00;101274.97;5094602;28;20207;-75
2022/01/01 02:18:55;;;;;;;10.17;6.77;;;;;;;11.69;100.00;101292.19;5094403;28;20264;-74
2022/01/01 02:21:21;;;;;;;5.97;5.40;;;;;;;11.73;100.00;101296.00;5094116;28;20213;-75
2022/01/01 02:23:48;;;;;;;6.87;5.60;;;;;;;11.73;100.00;101289.69;5094293;28;20271;-75
2022/01/01 02:26:15;;;;;;;5.37;4.10;;;;;;;11.77;100.00;101296.19;5093944;28;20180;-75
2022/01/01 02:28:47;;;;;;;6.00;5.50;;;;;;;11.81;100.00;101308.19;5094041;28;20534;-74
2022/01/01 02:31:13;;;;;;;8.10;6.47;;;;;;;11.86;100.00;101302.63;5094007;28;20406;-74
2022/01/01 02:33:39;;;;;;;5.53;5.03;;;;;;;11.85;100.00;101301.00;5094079;28;20176;-75
2022/01/01 02:36:05;;;;;;;3.70;3.40;;;;;;;11.88;100.00;101316.88;5094018;28;20546;-75
2022/01/01 02:38:35;;;;;;;4.70;4.33;;;;;;;11.88;100.00;101306.72;5094263;28;20166;-75
2022/01/01 02:41:01;;;;;;;4.70;4.00;;;;;;;11.86;100.00;101313.59;5093824;28;20206;-75
2022/01/01 02:43:26;;;;;;;8.50;6.20;;;;;;;11.85;100.00;101317.44;5093857;28;20170;-75
2022/01/01 02:45:53;;;;;;;4.50;3.73;;;;;;;11.82;100.00;101321.59;5093611;28;20223;-75
2022/01/01 02:48:18;;;;;;;5.83;5.33;;;;;;;11.82;100.00;101320.78;5093852;28;20266;-75
2022/01/01 02:50:44;;;;;;;13.20;3.47;;;;;;;11.84;100.00;101330.31;5094426;28;20705;-75
2022/01/01 02:53:13;;;;;;;7.73;4.73;;;;;;;11.88;100.00;101317.69;5093827;28;20177;-76
2022/01/01 02:55:43;;;;;;;11.13;4.77;;;;;;;11.90;100.00;101320.13;5093483;28;20227;-76
2022/01/01 02:58:10;;;;;;;5.00;4.40;;;;;;;11.91;100.00;101325.28;5093687;28;20180;-77
2022/01/01 03:00:37;;;;;;;3.93;3.50;;;;;;;11.90;100.00;101314.63;5093437;28;20319;-76
2022/01/01 03:03:02;;;;;;;7.37;5.47;;;;;;;11.90;100.00;101315.44;5093599;28;20180;-76
2022/01/01 03:05:30;;;;;;;3.57;2.97;;;;;;;11.91;100.00;101319.00;5093346;28;20252;-76
2022/01/01 03:07:55;;;;;;;4.43;3.47;;;;;;;11.95;100.00;101322.75;5093436;28;20540;-76
2022/01/01 03:10:21;;;;;;;10.03;8.07;;;;;;;11.96;100.00;101324.38;5093307;28;20264;-77
2022/01/01 03:12:46;;;;;;;11.30;5.20;;;;;;;11.93;100.00;101326.91;5092955;28;20535;-76
2022/01/01 03:15:11;;;;;;;12.13;6.77;;;;;;;11.93;100.00;101335.13;5093092;28;20265;-76
2022/01/01 03:17:37;;;;;;;3.77;3.57;;;;;;;11.90;100.00;101331.06;5093337;28;20575;-76
2022/01/01 03:20:03;;;;;;;6.83;4.00;;;;;;;11.92;100.00;101337.06;5093161;28;20208;-76
2022/01/01 03:22:28;;;;;;;5.63;5.13;;;;;;;11.93;100.00;101341.41;5093193;28;20200;-76
2022/01/01 03:24:54;;;;;;;7.10;4.77;;;;;;;11.93;100.00;101335.94;5092738;28;20174;-76
2022/01/01 03:27:19;;;;;;;7.33;6.60;;;;;;;11.91;100.00;101325.28;5092976;28;20627;-76
2022/01/01 03:29:44;;;;;;;6.43;4.13;;;;;;;11.91;100.00;101333.50;5093078;28;20257;-75
2022/01/01 03:32:10;;;;;;;8.83;5.57;;;;;;;11.90;100.00;101333.81;5092933;28;20177;-76
2022/01/01 03:34:35;;;;;;;5.30;4.80;;;;;;;11.85;100.00;101334.69;5093037;28;20177;-76
2022/01/01 03:37:00;;;;;;;15.73;8.73;;;;;;;11.85;100.00;101326.47;5092769;28;20174;-75
2022/01/01 03:39:27;;;;;;;8.07;6.70;;;;;;;11.86;100.00;101328.13;5093219;28;20185;-75
2022/01/01 03:41:52;;;;;;;6.30;5.47;;;;;;;11.85;100.00;101329.19;5092381;28;20210;-76
2022/01/01 03:44:18;;;;;;;7.40;6.67;;;;;;;11.85;100.00;101331.94;5092842;28;20748;-76
2022/01/01 03:46:43;;;;;;;4.87;4.23;;;;;;;11.85;100.00;101323.72;5092907;28;20226;-76
2022/01/01 03:49:08;;;;;;;15.20;7.20;;;;;;;11.84;100.00;101340.47;5092665;28;20180;-76
2022/01/01 03:51:34;;;;;;;2.77;2.50;;;;;;;11.85;100.00;101340.16;5091136;28;20184;-75
2022/01/01 03:53:59;;;;;;;6.40;5.80;;;;;;;11.84;100.00;101330.31;5092845;28;20548;-75
2022/01/01 03:56:24;;;;;;;3.63;3.33;;;;;;;11.85;100.00;101321.00;5092399;28;20177;-76
2022/01/01 03:58:50;;;;;;;8.67;3.10;;;;;;;11.89;100.00;101329.44;5092471;28;20178;-75
2022/01/01 04:01:15;;;;;;;4.47;4.07;;;;;;;11.90;100.00;101326.41;5092400;28;20210;-75
2022/01/01 04:03:41;;;;;;;8.47;4.07;;;;;;;11.88;100.00;101325.06;5092399;28;20541;-75
2022/01/01 04:06:06;;;;;;;5.17;4.67;;;;;;;11.88;100.00;101328.63;5091915;28;20180;-76
2022/01/01 04:08:32;;;;;;;4.57;3.50;;;;;;;11.88;100.00;101330.56;5092320;28;20214;-76
2022/01/01 04:10:57;;;;;;;7.20;6.37;;;;;;;11.86;100.00;101328.13;5092076;28;20234;-76
2022/01/01 04:13:22;;;;;;;5.37;3.30;;;;;;;11.86;100.00;101325.38;5092282;28;20620;-76
2022/01/01 04:15:49;;;;;;;5.03;4.63;;;;;;;11.89;100.00;101326.69;5091839;28;20245;-76
2022/01/01 04:18:19;;;;;;;6.63;6.07;;;;;;;11.91;100.00;101336.25;5092097;28;20180;-77
2022/01/01 04:20:45;;;;;;;3.33;2.97;;;;;;;11.88;100.00;101325.06;5090811;28;20559;-75
2022/01/01 04:23:10;;;;;;;4.33;3.97;;;;;;;11.87;100.00;101317.97;5091814;28;20178;-76
2022/01/01 04:25:37;;;;;;;6.33;5.73;;;;;;;11.89;100.00;101330.25;5090934;28;20228;-76
2022/01/01 04:28:03;;;;;;;7.37;6.37;;;;;;;11.87;100.00;101321.53;5091800;28;20178;-76
2022/01/01 04:30:28;;;;;;;7.60;3.10;;;;;;;11.87;100.00;101327.00;5091834;28;20176;-75
2022/01/01 04:32:55;;;;;;;7.13;4.20;;;;;;;11.89;100.00;101329.44;5091864;28;20621;-76
2022/01/01 04:35:20;;;;;;;9.10;4.87;;;;;;;11.90;100.00;101320.13;5091372;28;20181;-75
2022/01/01 04:37:46;;;;;;;5.70;4.20;;;;;;;11.85;100.00;101326.47;5091715;28;20178;-75
2022/01/01 04:40:12;;;;;;;7.87;5.03;;;;;;;11.84;100.00;101322.09;5091584;28;20713;-75
2022/01/01 04:42:38;;;;;;;1.93;1.83;;;;;;;11.77;100.00;101327.13;5091140;28;20177;-76
2022/01/01 04:45:04;;;;;;;3.73;3.40;;;;;;;11.78;100.00;101325.19;5089983;28;20181;-76
2022/01/01 04:47:29;;;;;;;5.70;5.20;;;;;;;11.81;100.00;101333.66;5091331;28;20546;-76
2022/01/01 04:49:55;;;;;;;5.10;4.70;;;;;;;11.78;100.00;101334.22;5090265;28;20186;-76
2022/01/01 04:52:20;;;;;;;2.07;1.97;;;;;;;11.72;100.00;101335.44;5091391;28;20548;-76
2022/01/01 04:54:46;;;;;;;15.90;5.37;;;;;;;11.68;100.00;101348.06;5091085;28;20246;-75
2022/01/01 04:57:12;;;;;;;4.53;4.07;;;;;;;11.67;100.00;101351.09;5091272;28;20205;-75
2022/01/01 04:59:39;;;;;;;4.80;4.40;;;;;;;11.67;100.00;101343.69;5091705;28;20648;-76
2022/01/01 05:02:05;;;;;;;4.63;2.00;;;;;;;11.61;100.00;101350.38;5089660;28;20561;-75
2022/01/01 05:04:31;;;;;;;2.97;2.77;;;;;;;11.59;100.00;101353.41;5091277;28;20394;-75
2022/01/01 05:06:57;;;;;;;4.73;4.33;;;;;;;11.61;100.00;101356.66;5090930;28;20184;-76
2022/01/01 05:09:22;;;;;;;9.20;7.57;;;;;;;11.65;100.00;101354.13;5090608;28;20416;-76
2022/01/01 05:11:48;;;;;;;18.17;4.13;;;;;;;11.66;100.00;101361.22;5091025;28;20176;-76
2022/01/01 05:14:15;;;;;;;5.70;5.20;;;;;;;11.63;100.00;101356.34;5091006;28;20182;-76
2022/01/01 05:16:40;;;;;;;2.77;2.57;;;;;;;11.65;100.00;101370.56;5090649;28;20224;-76
2022/01/01 05:19:07;;;;;;;5.90;4.37;;;;;;;11.66;100.00;101357.69;5090943;28;20651;-75
2022/01/01 05:21:35;;;;;;;23.17;3.37;;;;;;;11.65;100.00;101367.81;5090715;28;20681;-76
2022/01/01 05:24:02;;;;;;;11.17;3.20;;;;;;;11.65;100.00;101367.81;5090863;28;20193;-74
2022/01/01 05:26:28;;;;;;;3.43;2.77;;;;;;;11.61;100.00;101364.06;5090669;28;20180;-76
2022/01/01 05:28:53;;;;;;;2.43;2.23;;;;;;;11.60;100.00;101360.50;5090778;28;20197;-76
2022/01/01 05:31:19;;;;;;;1.67;1.57;;;;;;;11.59;100.00;101369.00;5090600;28;20185;-75
2022/01/01 05:33:49;;;;;;;3.40;3.10;;;;;;;11.59;100.00;101356.13;5090814;28;20238;-75
2022/01/01 05:36:15;;;;;;;2.63;2.43;;;;;;;11.61;100.00;101370.34;5090383;28;20256;-75
2022/01/01 05:38:41;;;;;;;10.90;4.43;;;;;;;11.60;100.00;101359.69;5090721;28;20276;-75
2022/01/01 05:41:07;;;;;;;4.33;2.47;;;;;;;11.61;100.00;101392.22;5090091;28;20206;-76
2022/01/01 05:43:32;;;;;;;3.87;3.43;;;;;;;11.63;100.00;101353.63;5090813;28;20208;-75
2022/01/01 05:45:57;;;;;;;4.33;3.60;;;;;;;11.62;100.00;101309.00;5090272;28;20177;-76
2022/01/01 05:48:23;;;;;;;4.97;3.07;;;;;;;11.63;100.00;101321.59;5089210;28;20181;-75
2022/01/01 05:50:48;;;;;;;3.77;3.47;;;;;;;11.65;100.00;101334.97;5090570;28;20182;-75
2022/01/01 05:53:14;;;;;;;6.10;5.07;;;;;;;11.66;100.00;101341.25;5090525;28;20188;-75
2022/01/01 05:55:40;;;;;;;5.20;4.03;;;;;;;11.67;100.00;101349.16;5090154;28;20517;-75
2022/01/01 05:58:05;;;;;;;11.00;4.20;;;;;;;11.67;100.00;101371.06;5090674;28;20178;-76
2022/01/01 06:00:32;;;;;;;7.37;5.20;;;;;;;11.67;100.00;101373.81;5090287;28;20280;-75
2022/01/01 06:02:58;;;;;;;10.03;7.13;;;;;;;11.64;100.00;101374.41;5090455;28;20166;-76
2022/01/01 06:05:24;;;;;;;5.57;5.17;;;;;;;11.61;100.00;101378.56;5090128;28;20166;-75
2022/01/01 06:07:49;;;;;;;6.57;5.00;;;;;;;11.65;100.00;101376.03;5090321;28;20173;-76
2022/01/01 06:10:15;;;;;;;6.40;5.77;;;;;;;11.64;100.00;101371.66;5090232;28;20676;-75
2022/01/01 06:12:40;;;;;;;7.87;7.13;;;;;;;11.61;100.00;101369.53;5090332;28;20178;-75
2022/01/01 06:15:06;;;;;;;8.27;5.07;;;;;;;11.59;100.00;101367.09;5090122;28;20228;-75
2022/01/01 06:17:31;;;;;;;9.70;5.83;;;;;;;11.59;100.00;101379.97;5090584;28;20174;-75
2022/01/01 06:19:57;;;;;;;10.60;5.43;;;;;;;11.56;100.00;101381.34;5090256;28;20256;-75
2022/01/01 06:22:22;;;;;;;7.03;3.77;;;;;;;11.60;100.00;101395.28;5089978;28;20258;-76
2022/01/01 06:24:47;;;;;;;11.67;6.77;;;;;;;11.59;100.00;101386.25;5088904;28;20637;-76
2022/01/01 06:27:13;;;;;;;6.20;4.30;;;;;;;11.58;100.00;101395.56;5090121;28;20182;-76
2022/01/01 06:29:38;;;;;;;9.07;5.83;;;;;;;11.57;100.00;101396.69;5090344;28;20213;-75
2022/01/01 06:32:04;;;;;;;7.13;5.20;;;;;;;11.57;100.00;101396.69;5090066;28;20611;-75
2022/01/01 06:34:30;;;;;;;12.20;5.73;;;;;;;11.54;100.00;101394.50;5090129;28;20170;-75
2022/01/01 06:36:55;;;;;;;8.97;6.30;;;;;;;11.54;100.00;101390.97;5089969;28;20542;-75
2022/01/01 06:39:20;;;;;;;9.67;5.43;;;;;;;11.54;100.00;101394.50;5089983;28;20174;-75
2022/01/01 06:41:46;;;;;;;6.17;5.47;;;;;;;11.54;100.00;101404.63;5089705;28;20555;-75
2022/01/01 06:44:11;;;;;;;17.83;5.57;;;;;;;11.57;100.00;101401.31;5089105;28;20174;-75
2022/01/01 06:46:36;;;;;;;8.50;6.00;;;;;;;11.53;100.00;101409.31;5089795;28;20197;-74
2022/01/01 06:49:02;;;;;;;6.43;6.03;;;;;;;11.53;100.00;101408.50;5092899;28;20238;-76
2022/01/01 06:51:27;;;;;;;6.73;6.20;;;;;;;11.54;100.00;101396.44;5093694;28;20222;-76
2022/01/01 06:53:53;;;;;;;6.93;5.20;;;;;;;11.57;100.00;101404.88;5093725;28;20174;-75
2022/01/01 06:56:18;;;;;;;10.40;7.43;;;;;;;11.56;100.00;101410.63;5093499;28;20567;-75
2022/01/01 06:58:44;;;;;;;6.40;4.87;;;;;;;11.56;100.00;101411.44;5093554;28;20613;-75
2022/01/01 07:01:10;;;;;;;9.73;8.47;;;;;;;11.59;100.00;101415.53;5093613;28;20201;-76
2022/01/01 07:03:36;;;;;;;4.33;4.03;;;;;;;11.60;100.00;101428.13;5093557;28;20633;-75
2022/01/01 07:06:01;;;;;;;11.60;7.10;;;;;;;11.61;100.00;101432.47;5093209;28;20182;-75
2022/01/01 07:08:27;;;;;;;6.57;4.53;;;;;;;11.62;100.00;101434.09;5093515;28;20185;-75
2022/01/01 07:10:52;;;;;;;4.27;3.97;;;;;;;11.62;100.00;101426.72;5093327;28;20665;-75
2022/01/01 07:13:18;;;;;;;7.93;7.13;;;;;;;11.61;100.00;101416.06;5093515;28;20538;-75
2022/01/01 07:15:43;;;;;;;7.77;6.97;;;;;;;11.65;100.00;101438.19;5091884;28;20182;-75
2022/01/01 07:18:10;;;;;;;20.03;11.00;;;;;;;11.67;100.00;101444.16;5093197;28;20628;-74
2022/01/01 07:20:35;;;;;;;5.53;5.00;;;;;;;11.68;100.00;101441.13;5093514;28;20597;-75
2022/01/01 07:23:01;;;;;;;17.67;11.90;;;;;;;11.67;100.00;101439.50;5093095;28;20189;-74
2022/01/01 07:25:29;;;;;;;7.27;5.63;;;;;;;11.68;100.00;101456.75;5092911;28;20173;-75
2022/01/01 07:27:54;;;;;;;12.87;11.50;;;;;;;11.70;100.00;101452.59;5093042;28;20189;-75
2022/01/01 07:30:19;;;;;;;5.33;4.57;;;;;;;11.70;100.00;101449.03;5093323;28;20174;-75
2022/01/01 07:32:46;;;;;;;5.13;4.83;;;;;;;11.73;100.00;101449.28;5093036;28;20174;-74
2022/01/01 07:35:14;;;;;;;8.13;5.33;;;;;;;11.75;100.00;101468.97;5091377;28;20261;-74
2022/01/01 07:37:40;;;;;;;5.47;5.03;;;;;;;11.77;100.00;101466.75;5092921;28;20178;-74
2022/01/01 07:40:08;;;;;;;7.70;6.67;;;;;;;11.78;100.00;101456.63;5092714;28;20528;-75
2022/01/01 07:42:34;;;;;;;10.73;8.80;;;;;;;11.78;100.00;101454.69;5092556;28;20242;-75
2022/01/01 07:44:59;;;;;;;6.40;4.83;;;;;;;11.81;100.00;101459.59;5092621;28;20215;-75
2022/01/01 07:47:25;;;;;;;3.73;3.40;;;;;;;11.81;100.00;101464.25;5092602;28;20482;-75
2022/01/01 07:49:50;;;;;;;8.33;7.53;;;;;;;11.79;100.00;101469.22;5092721;28;20602;-74
2022/01/01 07:52:16;;;;;;;16.50;9.30;;;;;;;11.80;100.00;101479.88;5092548;28;20182;-75
2022/01/01 07:54:41;;;;;;;11.00;7.27;;;;;;;11.81;100.00;101483.44;5092353;28;20170;-75
2022/01/01 07:57:07;;;;;;;15.97;7.77;;;;;;;11.80;100.00;101479.88;5092445;28;20174;-74
2022/01/01 07:59:32;;;;;;;10.33;9.03;;;;;;;11.79;100.00;101472.78;5091369;28;20171;-75
2022/01/01 08:01:57;;;;;;;11.60;8.90;;;;;;;11.81;100.00;101476.03;5092227;28;20734;-75
2022/01/01 08:04:23;;;;;;;14.53;10.13;;;;;;;11.83;100.00;101490.25;5092461;28;20174;-75
2022/01/01 08:06:48;;;;;;;8.23;7.50;;;;;;;11.88;100.00;101481.97;5090779;28;20170;-74
2022/01/01 08:09:14;;;;;;;3.87;3.67;;;;;;;11.90;100.00;101484.41;5092563;28;20178;-74
2022/01/01 08:11:40;;;;;;;11.03;4.13;;;;;;;11.87;100.00;101494.03;5092458;28;20197;-75
2022/01/01 08:14:05;;;;;;;5.47;5.03;;;;;;;11.88;100.00;101489.38;5092188;28;20645;-74
2022/01/01 08:16:30;;;;;;;7.03;6.40;;;;;;;11.90;100.00;101495.38;5091766;28;20230;-75
2022/01/01 08:18:56;;;;;;;9.90;7.70;;;;;;;11.91;100.00;101491.53;5091999;28;20204;-74
2022/01/01 08:21:21;;;;;;;8.27;7.10;;;;;;;11.91;100.00;101497.81;5091922;28;20209;-75
2022/01/01 08:23:46;;;;;;;11.33;7.23;;;;;;;11.95;100.00;101505.44;5092142;28;20182;-75
2022/01/01 08:26:12;;;;;;;7.20;6.23;;;;;;;11.97;100.00;101511.41;5091696;28;20177;-75
2022/01/01 08:28:37;;;;;;;5.30;4.83;;;;;;;11.97;100.00;101497.72;5090578;28;20713;-74
2022/01/01 08:31:04;;;;;;;6.93;6.20;;;;;;;11.97;100.00;101503.22;5091708;28;20178;-74
2022/01/01 08:33:29;;;;;;;9.17;6.77;;;;;;;11.98;100.00;101516.59;5091892;28;20174;-75
2022/01/01 08:35:55;;;;;;;9.63;7.17;;;;;;;11.99;100.00;101522.91;5090264;28;20532;-74
2022/01/01 08:38:21;;;;;;;11.00;8.57;;;;;;;12.00;100.00;101528.06;5091766;28;20726;-75
2022/01/01 08:40:46;;;;;;;8.80;7.97;;;;;;;12.03;100.00;101527.50;5091519;28;20201;-75
2022/01/01 08:43:12;;;;;;;21.87;12.10;;;;;;;12.04;100.00;101522.84;5091391;28;20575;-74
2022/01/01 08:45:38;;;;;;;11.83;10.40;;;;;;;12.05;100.00;101530.75;5091766;28;20200;-74
2022/01/01 08:48:05;;;;;;;16.93;9.93;;;;;;;12.06;100.00;101532.41;5091545;28;20251;-74
2022/01/01 08:50:30;;;;;;;12.03;8.23;;;;;;;12.08;100.00;101537.56;5091073;28;20213;-75
2022/01/01 08:52:57;;;;;;;7.60;6.97;;;;;;;12.07;100.00;101544.97;5091469;28;20206;-75
2022/01/01 08:55:23;;;;;;;20.00;7.40;;;;;;;12.09;100.00;101530.97;5091084;28;20174;-75
2022/01/01 08:57:48;;;;;;;7.23;6.17;;;;;;;12.07;100.00;101527.72;5091637;28;20174;-74
2022/01/01 09:00:14;;;;;;;4.33;3.97;;;;;;;12.08;100.00;101543.06;5091163;28;20174;-75
2022/01/01 09:02:39;;;;;;;17.70;10.03;;;;;;;12.09;100.00;101539.19;5089925;28;20652;-75
2022/01/01 09:05:05;;;;;;;3.83;3.53;;;;;;;12.10;100.00;101540.84;5091073;28;20592;-75
2022/01/01 09:07:31;;;;;;;17.40;8.93;;;;;;;12.10;100.00;101538.09;5091226;28;20181;-75
2022/01/01 09:09:58;;;;;;;17.70;6.77;;;;;;;12.09;100.00;101540.03;5091100;28;20170;-75
2022/01/01 09:12:24;;;;;;;7.40;6.07;;;;;;;12.13;100.00;101532.00;5090675;28;20182;-74
2022/01/01 09:14:50;;;;;;;7.93;5.47;;;;;;;12.15;100.00;101548.97;5090795;28;20187;-75
2022/01/01 09:17:15;;;;;;;7.10;6.30;;;;;;;12.13;100.00;101537.50;5091178;28;20178;-75
2022/01/01 09:19:40;;;;;;;9.43;4.70;;;;;;;12.14;100.00;101553.63;5091047;28;20748;-75
2022/01/01 09:22:06;;;;;;;7.00;4.57;;;;;;;12.15;100.00;101557.19;5090778;28;20257;-75
2022/01/01 09:24:31;;;;;;;12.10;10.80;;;;;;;12.14;100.00;101561.84;5090782;28;20178;-74
2022/01/01 09:26:57;;;;;;;7.20;5.67;;;;;;;12.16;100.00;101553.38;5090570;28;20363;-74
2022/01/01 09:29:22;;;;;;;15.03;8.27;;;;;;;12.16;100.00;101551.44;5090858;28;20174;-76
2022/01/01 09:31:47;;;;;;;15.17;6.47;;;;;;;12.15;100.00;101548.97;5090733;28;20622;-75
2022/01/01 09:34:13;;;;;;;11.67;10.47;;;;;;;12.18;100.00;101545.66;5090792;28;20257;-74
2022/01/01 09:36:38;;;;;;;16.17;10.53;;;;;;;12.20;100.00;101557.13;5090439;28;20181;-75
2022/01/01 09:39:05;;;;;;;18.50;11.13;;;;;;;12.20;100.00;101554.41;5090679;28;20174;-75
2022/01/01 09:41:31;;;;;;;11.23;6.70;;;;;;;12.21;100.00;101556.84;5090207;28;20527;-74
2022/01/01 09:43:57;;;;;;;13.10;11.53;;;;;;;12.23;100.00;101555.72;5090636;28;20174;-75
2022/01/01 09:46:26;;;;;;;13.73;10.63;;;;;;;12.24;100.00;101563.66;5090220;28;20222;-76
2022/01/01 09:48:52;;;;;;;15.57;11.57;;;;;;;12.26;100.00;101546.91;5091101;28;20668;-76
2022/01/01 09:51:19;;;;;;;10.27;9.33;;;;;;;12.27;100.00;101560.31;5090575;28;20235;-76
2022/01/01 09:53:45;;;;;;;10.57;9.50;;;;;;;12.28;100.00;101555.66;5090417;28;20583;-75
2022/01/01 09:56:10;;;;;;;8.57;7.80;;;;;;;12.30;100.00;101547.97;5090245;28;20174;-76
2022/01/01 09:58:37;;;;;;;10.47;8.57;;;;;;;12.29;100.00;101563.56;5090449;28;20173;-76
2022/01/01 10:01:06;;;;;;;8.10;5.97;;;;;;;12.30;100.00;101562.50;5090263;28;20559;-76
2022/01/01 10:03:43;;;;;;;8.67;7.77;;;;;;;12.32;100.00;101571.22;5090439;28;20173;-76
2022/01/01 10:06:08;;;;;;;9.07;7.07;;;;;;;12.32;100.00;101571.22;5090165;28;20589;-76
2022/01/01 10:08:37;;;;;;;8.00;7.07;;;;;;;12.33;100.00;101563.81;5090875;28;20208;-75
2022/01/01 10:11:03;;;;;;;7.67;4.67;;;;;;;12.35;100.00;101561.59;5090437;28;20173;-76
2022/01/01 10:13:32;;;;;;;5.73;5.17;;;;;;;12.35;100.00;101565.16;5090461;28;20166;-76
2022/01/01 10:16:00;;;;;;;6.80;6.00;;;;;;;12.39;100.00;101565.38;5090115;28;20683;-76
2022/01/01 10:18:36;;;;;;;9.73;6.40;;;;;;;12.40;100.00;101570.53;5090678;28;20255;-76
2022/01/01 10:21:13;;;;;;;11.90;4.07;;;;;;;12.40;100.00;101567.00;5090079;28;20205;-75
2022/01/01 10:23:42;;;;;;;7.30;5.07;;;;;;;12.42;100.00;101571.06;5091079;28;20708;-76
2022/01/01 10:29:19;;;;;;;7.33;5.77;;;;;;;12.43;100.00;101571.88;5094324;28;20185;-76
2022/01/01 10:32:01;;;;;;;10.23;4.97;;;;;;;12.44;100.00;101578.97;5094075;28;20178;-76
2022/01/01 10:34:29;;;;;;;4.47;4.07;;;;;;;12.42;100.00;101579.28;5094093;28;20678;-76
2022/01/01 10:36:55;;;;;;;10.53;5.80;;;;;;;12.42;100.00;101565.56;5093840;28;20227;-76
2022/01/01 10:39:21;;;;;;;12.63;6.10;;;;;;;12.44;100.00;101563.38;5092624;28;20173;-75
2022/01/01 10:42:06;;;;;;;7.27;5.10;;;;;;;12.48;100.00;101560.84;5093701;28;20203;-75
2022/01/01 10:44:38;;;;;;;7.97;4.43;;;;;;;12.53;100.00;101558.03;5093837;28;20540;-75
2022/01/01 10:47:17;;;;;;;4.40;4.00;;;;;;;12.58;100.00;101560.69;5093730;28;20242;-76
2022/01/01 10:52:18;;;;;;;5.30;4.17;;;;;;;12.69;99.71;101564.09;5093958;28;20170;-77
2022/01/01 10:55:01;;;;;;;5.90;3.73;;;;;;;12.77;99.72;101574.41;5093568;28;20189;-76
2022/01/01 10:57:35;;;;;;;5.97;4.50;;;;;;;12.81;99.30;101561.72;5093609;28;20169;-75
2022/01/01 11:00:17;;;;;;;4.63;4.00;;;;;;;12.87;98.24;101549.53;5093615;28;20625;-75
2022/01/01 11:02:51;;;;;;;4.03;2.63;;;;;;;12.91;97.74;101555.25;5093492;28;20256;-75
2022/01/01 11:05:24;;;;;;;2.07;1.47;;;;;;;12.91;97.48;101547.03;5093608;28;20180;-75
2022/01/01 11:07:52;;;;;;;3.90;2.47;;;;;;;12.89;97.00;101544.59;5093640;28;20375;-75
2022/01/01 11:10:19;;;;;;;3.40;3.07;;;;;;;12.89;96.39;101530.06;5093428;28;20561;-75
2022/01/01 11:12:45;;;;;;;3.37;2.77;;;;;;;12.91;97.21;101550.59;5093355;28;20162;-76
2022/01/01 11:15:12;;;;;;;1.53;1.43;;;;;;;12.90;96.66;101534.44;5093004;28;20532;-75
2022/01/01 11:17:41;;;;;;;4.03;2.83;;;;;;;12.92;97.07;101543.97;5093348;28;20245;-75
2022/01/01 11:20:06;;;;;;;7.93;3.33;;;;;;;12.92;97.09;101529.44;5093254;28;20192;-74
2022/01/01 11:22:32;;;;;;;5.23;3.20;;;;;;;12.91;96.56;101530.56;5093092;28;20201;-75